sensor_id;sensor_type;location;lat;lon;timestamp;P1;durP1;ratioP1;P2;durP2;ratioP2
53151;SDS011;39234;53.158;6.322;2023-04-25T00:01:04;22.35;;;3.72;;
53151;SDS011;39234;53.158;6.322;2023-04-25T00:03:33;16.27;;;3.78;;
53151;SDS011;39234;53.158;6.322;2023-04-25T00:06:00;20.27;;;4.25;;
53151;SDS011;39234;53.158;6.322;2023-04-25T00:08:30;23.92;;;3.92;;
53151;SDS011;39234;53.158;6.322;2023-04-25T00:10:57;20.58;;;4.55;;
53151;SDS011;39234;53.158;6.322;2023-04-25T00:13:23;21.00;;;4.72;;
53151;SDS011;39234;53.158;6.322;2023-04-25T00:15:50;17.73;;;3.28;;
53151;SDS011;39234;53.158;6.322;2023-04-25T00:18:18;20.00;;;3.97;;
53151;SDS011;39234;53.158;6.322;2023-04-25T00:20:45;22.75;;;3.85;;
53151;SDS011;39234;53.158;6.322;2023-04-25T00:23:15;23.08;;;3.38;;
53151;SDS011;39234;53.158;6.322;2023-04-25T00:25:45;26.27;;;4.00;;
53151;SDS011;39234;53.158;6.322;2023-04-25T00:28:11;16.10;;;3.17;;
53151;SDS011;39234;53.158;6.322;2023-04-25T00:30:38;20.67;;;2.88;;
53151;SDS011;39234;53.158;6.322;2023-04-25T00:33:04;19.23;;;3.15;;
53151;SDS011;39234;53.158;6.322;2023-04-25T00:35:30;20.17;;;3.42;;
53151;SDS011;39234;53.158;6.322;2023-04-25T00:37:56;17.15;;;3.28;;
53151;SDS011;39234;53.158;6.322;2023-04-25T00:40:22;20.20;;;4.25;;
53151;SDS011;39234;53.158;6.322;2023-04-25T00:42:48;21.10;;;3.30;;
53151;SDS011;39234;53.158;6.322;2023-04-25T00:45:16;19.40;;;3.55;;
53151;SDS011;39234;53.158;6.322;2023-04-25T00:47:43;15.02;;;3.05;;
53151;SDS011;39234;53.158;6.322;2023-04-25T00:50:09;14.05;;;4.05;;
53151;SDS011;39234;53.158;6.322;2023-04-25T00:52:37;17.27;;;3.25;;
53151;SDS011;39234;53.158;6.322;2023-04-25T00:55:05;19.23;;;3.55;;
53151;SDS011;39234;53.158;6.322;2023-04-25T00:57:31;14.77;;;3.38;;
53151;SDS011;39234;53.158;6.322;2023-04-25T00:59:58;14.50;;;3.72;;
53151;SDS011;39234;53.158;6.322;2023-04-25T01:02:24;12.20;;;2.85;;
53151;SDS011;39234;53.158;6.322;2023-04-25T01:04:52;17.10;;;3.30;;
53151;SDS011;39234;53.158;6.322;2023-04-25T01:07:18;15.65;;;3.38;;
53151;SDS011;39234;53.158;6.322;2023-04-25T01:09:44;11.82;;;2.47;;
53151;SDS011;39234;53.158;6.322;2023-04-25T01:12:10;17.33;;;3.13;;
53151;SDS011;39234;53.158;6.322;2023-04-25T01:14:36;17.08;;;4.55;;
53151;SDS011;39234;53.158;6.322;2023-04-25T01:17:02;23.27;;;4.70;;
53151;SDS011;39234;53.158;6.322;2023-04-25T01:19:28;17.15;;;4.18;;
53151;SDS011;39234;53.158;6.322;2023-04-25T01:21:54;20.02;;;4.68;;
53151;SDS011;39234;53.158;6.322;2023-04-25T01:24:20;19.88;;;3.53;;
53151;SDS011;39234;53.158;6.322;2023-04-25T01:26:46;22.52;;;3.85;;
53151;SDS011;39234;53.158;6.322;2023-04-25T01:29:19;16.05;;;4.30;;
53151;SDS011;39234;53.158;6.322;2023-04-25T01:31:45;15.18;;;3.50;;
53151;SDS011;39234;53.158;6.322;2023-04-25T01:34:11;14.88;;;2.92;;
53151;SDS011;39234;53.158;6.322;2023-04-25T01:36:38;16.48;;;2.58;;
53151;SDS011;39234;53.158;6.322;2023-04-25T01:39:04;23.20;;;3.78;;
53151;SDS011;39234;53.158;6.322;2023-04-25T01:41:31;14.55;;;3.03;;
53151;SDS011;39234;53.158;6.322;2023-04-25T01:43:57;17.45;;;2.58;;
53151;SDS011;39234;53.158;6.322;2023-04-25T01:46:23;19.67;;;3.90;;
53151;SDS011;39234;53.158;6.322;2023-04-25T01:48:49;15.38;;;2.88;;
53151;SDS011;39234;53.158;6.322;2023-04-25T01:51:15;12.93;;;2.75;;
53151;SDS011;39234;53.158;6.322;2023-04-25T01:53:40;18.48;;;3.15;;
53151;SDS011;39234;53.158;6.322;2023-04-25T01:56:07;14.95;;;2.60;;
53151;SDS011;39234;53.158;6.322;2023-04-25T01:58:33;16.08;;;2.70;;
53151;SDS011;39234;53.158;6.322;2023-04-25T02:00:59;11.20;;;2.50;;
53151;SDS011;39234;53.158;6.322;2023-04-25T02:03:25;13.48;;;2.55;;
53151;SDS011;39234;53.158;6.322;2023-04-25T02:05:50;19.02;;;3.50;;
53151;SDS011;39234;53.158;6.322;2023-04-25T02:08:16;17.05;;;2.88;;
53151;SDS011;39234;53.158;6.322;2023-04-25T02:10:43;21.50;;;2.55;;
53151;SDS011;39234;53.158;6.322;2023-04-25T02:13:09;19.05;;;2.70;;
53151;SDS011;39234;53.158;6.322;2023-04-25T02:15:35;17.98;;;2.65;;
53151;SDS011;39234;53.158;6.322;2023-04-25T02:18:01;17.05;;;2.80;;
53151;SDS011;39234;53.158;6.322;2023-04-25T02:20:27;21.65;;;2.67;;
53151;SDS011;39234;53.158;6.322;2023-04-25T02:22:55;16.40;;;2.60;;
53151;SDS011;39234;53.158;6.322;2023-04-25T02:25:21;23.63;;;4.78;;
53151;SDS011;39234;53.158;6.322;2023-04-25T02:27:47;13.25;;;2.30;;
53151;SDS011;39234;53.158;6.322;2023-04-25T02:30:13;19.58;;;2.80;;
53151;SDS011;39234;53.158;6.322;2023-04-25T02:32:40;18.02;;;3.80;;
53151;SDS011;39234;53.158;6.322;2023-04-25T02:35:06;20.70;;;3.30;;
53151;SDS011;39234;53.158;6.322;2023-04-25T02:37:33;12.75;;;2.67;;
53151;SDS011;39234;53.158;6.322;2023-04-25T02:40:00;13.65;;;3.17;;
53151;SDS011;39234;53.158;6.322;2023-04-25T02:42:26;18.48;;;2.85;;
53151;SDS011;39234;53.158;6.322;2023-04-25T02:44:52;11.75;;;2.20;;
53151;SDS011;39234;53.158;6.322;2023-04-25T02:47:18;13.40;;;2.72;;
53151;SDS011;39234;53.158;6.322;2023-04-25T02:49:44;13.10;;;2.40;;
53151;SDS011;39234;53.158;6.322;2023-04-25T02:52:10;19.05;;;2.65;;
53151;SDS011;39234;53.158;6.322;2023-04-25T02:54:36;13.18;;;2.40;;
53151;SDS011;39234;53.158;6.322;2023-04-25T02:57:03;14.43;;;1.98;;
53151;SDS011;39234;53.158;6.322;2023-04-25T02:59:29;17.33;;;2.88;;
53151;SDS011;39234;53.158;6.322;2023-04-25T03:01:54;11.85;;;1.90;;
53151;SDS011;39234;53.158;6.322;2023-04-25T03:04:20;17.27;;;2.67;;
53151;SDS011;39234;53.158;6.322;2023-04-25T03:06:48;12.68;;;2.10;;
53151;SDS011;39234;53.158;6.322;2023-04-25T03:09:15;23.17;;;3.63;;
53151;SDS011;39234;53.158;6.322;2023-04-25T03:11:41;7.88;;;1.83;;
53151;SDS011;39234;53.158;6.322;2023-04-25T03:14:07;15.77;;;2.13;;
53151;SDS011;39234;53.158;6.322;2023-04-25T03:16:33;9.38;;;1.70;;
53151;SDS011;39234;53.158;6.322;2023-04-25T03:18:59;7.32;;;1.60;;
53151;SDS011;39234;53.158;6.322;2023-04-25T03:21:24;15.25;;;2.08;;
53151;SDS011;39234;53.158;6.322;2023-04-25T03:23:51;10.95;;;2.15;;
53151;SDS011;39234;53.158;6.322;2023-04-25T03:26:17;12.80;;;2.70;;
53151;SDS011;39234;53.158;6.322;2023-04-25T03:28:43;10.50;;;2.08;;
53151;SDS011;39234;53.158;6.322;2023-04-25T03:31:09;13.25;;;3.10;;
53151;SDS011;39234;53.158;6.322;2023-04-25T03:33:35;14.98;;;3.08;;
53151;SDS011;39234;53.158;6.322;2023-04-25T03:36:01;12.35;;;1.95;;
53151;SDS011;39234;53.158;6.322;2023-04-25T03:38:27;15.48;;;2.60;;
53151;SDS011;39234;53.158;6.322;2023-04-25T03:40:53;15.30;;;2.45;;
53151;SDS011;39234;53.158;6.322;2023-04-25T03:43:19;10.85;;;2.10;;
53151;SDS011;39234;53.158;6.322;2023-04-25T03:45:45;15.10;;;2.97;;
53151;SDS011;39234;53.158;6.322;2023-04-25T03:48:11;10.73;;;2.22;;
53151;SDS011;39234;53.158;6.322;2023-04-25T03:50:37;10.82;;;1.95;;
53151;SDS011;39234;53.158;6.322;2023-04-25T03:53:03;11.45;;;2.33;;
53151;SDS011;39234;53.158;6.322;2023-04-25T03:55:29;13.80;;;2.00;;
53151;SDS011;39234;53.158;6.322;2023-04-25T03:57:55;15.07;;;2.38;;
53151;SDS011;39234;53.158;6.322;2023-04-25T04:00:23;13.55;;;1.98;;
53151;SDS011;39234;53.158;6.322;2023-04-25T04:02:49;11.88;;;1.60;;
53151;SDS011;39234;53.158;6.322;2023-04-25T04:05:15;20.13;;;2.20;;
53151;SDS011;39234;53.158;6.322;2023-04-25T04:07:41;16.55;;;2.35;;
53151;SDS011;39234;53.158;6.322;2023-04-25T04:10:08;11.80;;;1.73;;
53151;SDS011;39234;53.158;6.322;2023-04-25T04:12:35;11.85;;;1.85;;
53151;SDS011;39234;53.158;6.322;2023-04-25T04:15:01;16.30;;;2.10;;
53151;SDS011;39234;53.158;6.322;2023-04-25T04:17:29;13.10;;;3.28;;
53151;SDS011;39234;53.158;6.322;2023-04-25T04:19:55;9.60;;;2.10;;
53151;SDS011;39234;53.158;6.322;2023-04-25T04:22:21;19.13;;;3.33;;
53151;SDS011;39234;53.158;6.322;2023-04-25T04:24:47;13.35;;;2.13;;
53151;SDS011;39234;53.158;6.322;2023-04-25T04:27:15;9.45;;;2.00;;
53151;SDS011;39234;53.158;6.322;2023-04-25T04:29:45;12.10;;;3.03;;
53151;SDS011;39234;53.158;6.322;2023-04-25T04:32:11;11.02;;;1.83;;
53151;SDS011;39234;53.158;6.322;2023-04-25T04:34:38;11.40;;;2.30;;
53151;SDS011;39234;53.158;6.322;2023-04-25T04:37:04;10.05;;;1.92;;
53151;SDS011;39234;53.158;6.322;2023-04-25T04:39:32;16.35;;;3.33;;
53151;SDS011;39234;53.158;6.322;2023-04-25T04:41:58;12.45;;;2.50;;
53151;SDS011;39234;53.158;6.322;2023-04-25T04:44:26;11.32;;;2.25;;
53151;SDS011;39234;53.158;6.322;2023-04-25T04:46:53;10.68;;;2.20;;
53151;SDS011;39234;53.158;6.322;2023-04-25T04:49:20;13.85;;;2.42;;
53151;SDS011;39234;53.158;6.322;2023-04-25T04:51:46;11.95;;;2.03;;
53151;SDS011;39234;53.158;6.322;2023-04-25T04:54:12;16.02;;;2.33;;
53151;SDS011;39234;53.158;6.322;2023-04-25T04:56:38;17.05;;;3.22;;
53151;SDS011;39234;53.158;6.322;2023-04-25T04:59:05;16.25;;;2.67;;
53151;SDS011;39234;53.158;6.322;2023-04-25T05:01:31;10.95;;;2.13;;
53151;SDS011;39234;53.158;6.322;2023-04-25T05:03:56;12.10;;;2.03;;
53151;SDS011;39234;53.158;6.322;2023-04-25T05:06:25;16.08;;;2.25;;
53151;SDS011;39234;53.158;6.322;2023-04-25T05:08:51;13.60;;;3.08;;
53151;SDS011;39234;53.158;6.322;2023-04-25T05:11:18;15.70;;;2.08;;
53151;SDS011;39234;53.158;6.322;2023-04-25T05:13:44;11.77;;;2.72;;
53151;SDS011;39234;53.158;6.322;2023-04-25T05:16:11;16.52;;;2.30;;
53151;SDS011;39234;53.158;6.322;2023-04-25T05:18:37;14.25;;;2.25;;
53151;SDS011;39234;53.158;6.322;2023-04-25T05:21:03;15.27;;;2.20;;
53151;SDS011;39234;53.158;6.322;2023-04-25T05:23:30;14.18;;;2.60;;
53151;SDS011;39234;53.158;6.322;2023-04-25T05:25:57;11.45;;;2.35;;
53151;SDS011;39234;53.158;6.322;2023-04-25T05:28:22;12.15;;;2.00;;
53151;SDS011;39234;53.158;6.322;2023-04-25T05:30:48;12.35;;;2.70;;
53151;SDS011;39234;53.158;6.322;2023-04-25T05:33:14;7.10;;;2.05;;
53151;SDS011;39234;53.158;6.322;2023-04-25T05:35:40;14.57;;;2.47;;
53151;SDS011;39234;53.158;6.322;2023-04-25T05:38:06;12.25;;;2.33;;
53151;SDS011;39234;53.158;6.322;2023-04-25T05:40:32;14.77;;;3.80;;
53151;SDS011;39234;53.158;6.322;2023-04-25T05:42:58;13.05;;;2.22;;
53151;SDS011;39234;53.158;6.322;2023-04-25T05:45:24;13.95;;;2.50;;
53151;SDS011;39234;53.158;6.322;2023-04-25T05:47:49;12.90;;;2.10;;
53151;SDS011;39234;53.158;6.322;2023-04-25T05:50:15;13.18;;;2.78;;
53151;SDS011;39234;53.158;6.322;2023-04-25T05:52:41;8.52;;;1.88;;
53151;SDS011;39234;53.158;6.322;2023-04-25T05:55:07;11.20;;;2.38;;
53151;SDS011;39234;53.158;6.322;2023-04-25T05:57:33;12.07;;;1.98;;
53151;SDS011;39234;53.158;6.322;2023-04-25T05:59:59;11.55;;;1.88;;
53151;SDS011;39234;53.158;6.322;2023-04-25T06:02:25;14.30;;;2.65;;
53151;SDS011;39234;53.158;6.322;2023-04-25T06:04:51;9.70;;;1.58;;
53151;SDS011;39234;53.158;6.322;2023-04-25T06:07:18;8.35;;;1.40;;
53151;SDS011;39234;53.158;6.322;2023-04-25T06:09:44;7.72;;;1.40;;
53151;SDS011;39234;53.158;6.322;2023-04-25T06:12:10;11.90;;;2.22;;
53151;SDS011;39234;53.158;6.322;2023-04-25T06:14:36;12.80;;;2.03;;
53151;SDS011;39234;53.158;6.322;2023-04-25T06:17:02;9.68;;;1.42;;
53151;SDS011;39234;53.158;6.322;2023-04-25T06:19:33;6.50;;;1.50;;
53151;SDS011;39234;53.158;6.322;2023-04-25T06:22:00;12.07;;;1.77;;
53151;SDS011;39234;53.158;6.322;2023-04-25T06:24:27;11.25;;;1.95;;
53151;SDS011;39234;53.158;6.322;2023-04-25T06:26:52;10.43;;;1.70;;
53151;SDS011;39234;53.158;6.322;2023-04-25T06:29:18;7.55;;;1.38;;
53151;SDS011;39234;53.158;6.322;2023-04-25T06:31:44;7.90;;;1.08;;
53151;SDS011;39234;53.158;6.322;2023-04-25T06:34:10;9.23;;;1.65;;
53151;SDS011;39234;53.158;6.322;2023-04-25T06:36:36;7.57;;;1.27;;
53151;SDS011;39234;53.158;6.322;2023-04-25T06:39:04;6.97;;;1.40;;
53151;SDS011;39234;53.158;6.322;2023-04-25T06:41:30;12.98;;;2.58;;
53151;SDS011;39234;53.158;6.322;2023-04-25T06:43:56;5.70;;;1.58;;
53151;SDS011;39234;53.158;6.322;2023-04-25T06:46:22;4.88;;;0.90;;
53151;SDS011;39234;53.158;6.322;2023-04-25T06:48:47;9.75;;;1.58;;
53151;SDS011;39234;53.158;6.322;2023-04-25T06:51:13;10.25;;;1.90;;
53151;SDS011;39234;53.158;6.322;2023-04-25T06:53:39;5.88;;;1.40;;
53151;SDS011;39234;53.158;6.322;2023-04-25T06:56:05;7.95;;;1.35;;
53151;SDS011;39234;53.158;6.322;2023-04-25T06:58:31;6.57;;;1.48;;
53151;SDS011;39234;53.158;6.322;2023-04-25T07:00:59;9.10;;;2.13;;
53151;SDS011;39234;53.158;6.322;2023-04-25T07:03:25;9.40;;;1.65;;
53151;SDS011;39234;53.158;6.322;2023-04-25T07:05:51;8.20;;;1.60;;
53151;SDS011;39234;53.158;6.322;2023-04-25T07:08:17;8.88;;;1.77;;
53151;SDS011;39234;53.158;6.322;2023-04-25T07:10:42;9.02;;;1.88;;
53151;SDS011;39234;53.158;6.322;2023-04-25T07:13:08;11.00;;;2.47;;
53151;SDS011;39234;53.158;6.322;2023-04-25T07:15:34;9.05;;;2.08;;
53151;SDS011;39234;53.158;6.322;2023-04-25T07:18:00;8.40;;;1.45;;
53151;SDS011;39234;53.158;6.322;2023-04-25T07:20:25;11.35;;;1.95;;
53151;SDS011;39234;53.158;6.322;2023-04-25T07:22:52;9.10;;;1.63;;
53151;SDS011;39234;53.158;6.322;2023-04-25T07:25:19;6.65;;;1.30;;
53151;SDS011;39234;53.158;6.322;2023-04-25T07:27:45;7.75;;;1.58;;
53151;SDS011;39234;53.158;6.322;2023-04-25T07:30:11;6.47;;;2.05;;
53151;SDS011;39234;53.158;6.322;2023-04-25T07:32:37;4.97;;;1.10;;
53151;SDS011;39234;53.158;6.322;2023-04-25T07:35:03;4.03;;;1.20;;
53151;SDS011;39234;53.158;6.322;2023-04-25T07:37:29;8.60;;;1.25;;
53151;SDS011;39234;53.158;6.322;2023-04-25T07:39:55;6.32;;;1.05;;
53151;SDS011;39234;53.158;6.322;2023-04-25T07:42:21;7.95;;;1.23;;
53151;SDS011;39234;53.158;6.322;2023-04-25T07:44:47;4.70;;;1.08;;
53151;SDS011;39234;53.158;6.322;2023-04-25T07:47:12;6.07;;;1.88;;
53151;SDS011;39234;53.158;6.322;2023-04-25T07:49:38;9.35;;;1.30;;
53151;SDS011;39234;53.158;6.322;2023-04-25T07:52:05;10.30;;;1.10;;
53151;SDS011;39234;53.158;6.322;2023-04-25T07:54:31;10.80;;;1.48;;
53151;SDS011;39234;53.158;6.322;2023-04-25T07:56:57;10.23;;;1.23;;
53151;SDS011;39234;53.158;6.322;2023-04-25T07:59:24;7.78;;;1.52;;
53151;SDS011;39234;53.158;6.322;2023-04-25T08:01:49;7.80;;;1.45;;
53151;SDS011;39234;53.158;6.322;2023-04-25T08:04:15;11.40;;;1.50;;
53151;SDS011;39234;53.158;6.322;2023-04-25T08:06:41;7.18;;;1.15;;
53151;SDS011;39234;53.158;6.322;2023-04-25T08:09:08;5.57;;;1.25;;
53151;SDS011;39234;53.158;6.322;2023-04-25T08:11:36;11.18;;;1.50;;
53151;SDS011;39234;53.158;6.322;2023-04-25T08:14:02;10.15;;;1.88;;
53151;SDS011;39234;53.158;6.322;2023-04-25T08:16:28;9.82;;;2.08;;
53151;SDS011;39234;53.158;6.322;2023-04-25T08:18:54;7.05;;;1.27;;
53151;SDS011;39234;53.158;6.322;2023-04-25T08:21:20;7.10;;;1.30;;
53151;SDS011;39234;53.158;6.322;2023-04-25T08:23:46;6.38;;;1.13;;
53151;SDS011;39234;53.158;6.322;2023-04-25T08:26:12;9.63;;;1.15;;
53151;SDS011;39234;53.158;6.322;2023-04-25T08:28:37;5.80;;;1.13;;
53151;SDS011;39234;53.158;6.322;2023-04-25T08:31:03;8.73;;;0.90;;
53151;SDS011;39234;53.158;6.322;2023-04-25T08:33:29;4.70;;;0.90;;
53151;SDS011;39234;53.158;6.322;2023-04-25T08:35:56;8.55;;;0.95;;
53151;SDS011;39234;53.158;6.322;2023-04-25T08:38:22;7.07;;;1.30;;
53151;SDS011;39234;53.158;6.322;2023-04-25T08:40:51;4.35;;;1.00;;
53151;SDS011;39234;53.158;6.322;2023-04-25T08:43:17;4.55;;;0.95;;
53151;SDS011;39234;53.158;6.322;2023-04-25T08:45:45;4.95;;;1.25;;
53151;SDS011;39234;53.158;6.322;2023-04-25T08:48:12;6.88;;;1.10;;
53151;SDS011;39234;53.158;6.322;2023-04-25T08:50:40;4.75;;;1.10;;
53151;SDS011;39234;53.158;6.322;2023-04-25T08:53:26;5.22;;;0.98;;
53151;SDS011;39234;53.158;6.322;2023-04-25T08:55:58;4.40;;;1.10;;
53151;SDS011;39234;53.158;6.322;2023-04-25T08:58:27;5.32;;;1.10;;
53151;SDS011;39234;53.158;6.322;2023-04-25T09:00:54;10.00;;;1.85;;
53151;SDS011;39234;53.158;6.322;2023-04-25T09:03:20;8.25;;;1.63;;
53151;SDS011;39234;53.158;6.322;2023-04-25T09:05:45;5.45;;;1.10;;
53151;SDS011;39234;53.158;6.322;2023-04-25T09:08:11;6.93;;;1.17;;
53151;SDS011;39234;53.158;6.322;2023-04-25T09:10:37;5.85;;;1.45;;
53151;SDS011;39234;53.158;6.322;2023-04-25T09:18:24;9.38;;;1.30;;
53151;SDS011;39234;53.158;6.322;2023-04-25T09:20:51;10.07;;;1.63;;
53151;SDS011;39234;53.158;6.322;2023-04-25T09:23:19;10.32;;;1.80;;
53151;SDS011;39234;53.158;6.322;2023-04-25T09:25:50;7.95;;;1.83;;
53151;SDS011;39234;53.158;6.322;2023-04-25T09:28:18;13.00;;;2.35;;
53151;SDS011;39234;53.158;6.322;2023-04-25T09:30:52;14.65;;;2.88;;
53151;SDS011;39234;53.158;6.322;2023-04-25T09:33:22;10.47;;;2.53;;
53151;SDS011;39234;53.158;6.322;2023-04-25T09:36:01;10.85;;;2.33;;
53151;SDS011;39234;53.158;6.322;2023-04-25T09:38:32;10.75;;;1.70;;
53151;SDS011;39234;53.158;6.322;2023-04-25T09:41:11;10.38;;;1.42;;
53151;SDS011;39234;53.158;6.322;2023-04-25T09:43:38;9.70;;;1.80;;
53151;SDS011;39234;53.158;6.322;2023-04-25T09:46:10;8.90;;;1.40;;
53151;SDS011;39234;53.158;6.322;2023-04-25T09:48:36;7.20;;;1.70;;
53151;SDS011;39234;53.158;6.322;2023-04-25T09:53:40;6.95;;;1.60;;
53151;SDS011;39234;53.158;6.322;2023-04-25T09:56:08;8.27;;;1.40;;
53151;SDS011;39234;53.158;6.322;2023-04-25T09:58:36;7.00;;;1.40;;
53151;SDS011;39234;53.158;6.322;2023-04-25T10:01:03;8.32;;;1.77;;
53151;SDS011;39234;53.158;6.322;2023-04-25T10:03:31;14.40;;;1.80;;
53151;SDS011;39234;53.158;6.322;2023-04-25T10:06:02;7.75;;;2.05;;
53151;SDS011;39234;53.158;6.322;2023-04-25T10:08:34;10.30;;;1.70;;
53151;SDS011;39234;53.158;6.322;2023-04-25T10:13:31;7.18;;;1.73;;
53151;SDS011;39234;53.158;6.322;2023-04-25T10:15:58;9.77;;;1.40;;
53151;SDS011;39234;53.158;6.322;2023-04-25T10:18:29;6.85;;;1.30;;
53151;SDS011;39234;53.158;6.322;2023-04-25T10:20:59;9.50;;;1.42;;
53151;SDS011;39234;53.158;6.322;2023-04-25T10:23:30;5.28;;;1.15;;
53151;SDS011;39234;53.158;6.322;2023-04-25T10:25:56;6.65;;;1.48;;
53151;SDS011;39234;53.158;6.322;2023-04-25T10:28:23;8.88;;;1.90;;
53151;SDS011;39234;53.158;6.322;2023-04-25T10:31:02;8.82;;;1.50;;
53151;SDS011;39234;53.158;6.322;2023-04-25T10:33:36;7.80;;;1.40;;
53151;SDS011;39234;53.158;6.322;2023-04-25T10:36:13;9.90;;;1.88;;
53151;SDS011;39234;53.158;6.322;2023-04-25T10:38:43;7.53;;;1.45;;
53151;SDS011;39234;53.158;6.322;2023-04-25T10:41:11;9.35;;;1.95;;
53151;SDS011;39234;53.158;6.322;2023-04-25T10:43:38;6.88;;;1.55;;
53151;SDS011;39234;53.158;6.322;2023-04-25T10:46:23;8.23;;;1.80;;
53151;SDS011;39234;53.158;6.322;2023-04-25T10:48:55;9.65;;;1.92;;
53151;SDS011;39234;53.158;6.322;2023-04-25T10:56:32;9.00;;;1.98;;
53151;SDS011;39234;53.158;6.322;2023-04-25T10:59:10;11.18;;;1.70;;
53151;SDS011;39234;53.158;6.322;2023-04-25T11:01:43;7.72;;;1.67;;
53151;SDS011;39234;53.158;6.322;2023-04-25T11:06:55;7.90;;;1.35;;
53151;SDS011;39234;53.158;6.322;2023-04-25T11:09:29;11.63;;;1.58;;
53151;SDS011;39234;53.158;6.322;2023-04-25T11:11:56;7.50;;;1.58;;
53151;SDS011;39234;53.158;6.322;2023-04-25T11:14:23;8.50;;;1.80;;
53151;SDS011;39234;53.158;6.322;2023-04-25T11:16:53;7.03;;;1.88;;
53151;SDS011;39234;53.158;6.322;2023-04-25T11:19:20;9.70;;;2.28;;
53151;SDS011;39234;53.158;6.322;2023-04-25T11:21:46;7.40;;;1.88;;
53151;SDS011;39234;53.158;6.322;2023-04-25T11:24:12;3.70;;;1.00;;
53151;SDS011;39234;53.158;6.322;2023-04-25T11:26:38;7.82;;;1.13;;
53151;SDS011;39234;53.158;6.322;2023-04-25T11:29:06;4.00;;;1.15;;
53151;SDS011;39234;53.158;6.322;2023-04-25T11:31:32;5.53;;;1.20;;
53151;SDS011;39234;53.158;6.322;2023-04-25T11:33:58;5.57;;;1.27;;
53151;SDS011;39234;53.158;6.322;2023-04-25T11:36:25;8.52;;;1.63;;
53151;SDS011;39234;53.158;6.322;2023-04-25T11:38:52;7.20;;;1.30;;
53151;SDS011;39234;53.158;6.322;2023-04-25T11:41:21;7.82;;;1.50;;
53151;SDS011;39234;53.158;6.322;2023-04-25T11:43:47;10.85;;;1.60;;
53151;SDS011;39234;53.158;6.322;2023-04-25T11:46:15;6.45;;;1.65;;
53151;SDS011;39234;53.158;6.322;2023-04-25T11:48:41;5.10;;;1.50;;
53151;SDS011;39234;53.158;6.322;2023-04-25T11:51:07;11.07;;;1.58;;
53151;SDS011;39234;53.158;6.322;2023-04-25T11:53:33;10.20;;;1.63;;
53151;SDS011;39234;53.158;6.322;2023-04-25T11:56:00;10.20;;;1.83;;
53151;SDS011;39234;53.158;6.322;2023-04-25T11:58:26;8.25;;;1.65;;
53151;SDS011;39234;53.158;6.322;2023-04-25T12:00:52;10.43;;;1.75;;
53151;SDS011;39234;53.158;6.322;2023-04-25T12:03:19;8.32;;;1.20;;
53151;SDS011;39234;53.158;6.322;2023-04-25T12:05:45;10.35;;;1.63;;
53151;SDS011;39234;53.158;6.322;2023-04-25T12:10:38;10.88;;;1.83;;
53151;SDS011;39234;53.158;6.322;2023-04-25T12:13:24;12.20;;;2.00;;
53151;SDS011;39234;53.158;6.322;2023-04-25T12:15:51;9.68;;;1.73;;
53151;SDS011;39234;53.158;6.322;2023-04-25T12:18:19;10.95;;;2.65;;
53151;SDS011;39234;53.158;6.322;2023-04-25T12:20:46;9.15;;;1.60;;
53151;SDS011;39234;53.158;6.322;2023-04-25T12:23:12;9.23;;;1.48;;
53151;SDS011;39234;53.158;6.322;2023-04-25T12:25:41;11.38;;;1.65;;
53151;SDS011;39234;53.158;6.322;2023-04-25T12:28:16;7.95;;;1.30;;
53151;SDS011;39234;53.158;6.322;2023-04-25T12:33:22;13.35;;;2.90;;
53151;SDS011;39234;53.158;6.322;2023-04-25T12:35:53;10.65;;;1.50;;
53151;SDS011;39234;53.158;6.322;2023-04-25T12:40:55;11.40;;;1.50;;
53151;SDS011;39234;53.158;6.322;2023-04-25T12:43:21;9.02;;;1.60;;
53151;SDS011;39234;53.158;6.322;2023-04-25T12:45:51;12.70;;;1.70;;
53151;SDS011;39234;53.158;6.322;2023-04-25T12:48:18;6.63;;;1.70;;
53151;SDS011;39234;53.158;6.322;2023-04-25T12:50:45;11.05;;;1.50;;
53151;SDS011;39234;53.158;6.322;2023-04-25T12:53:14;10.45;;;1.73;;
53151;SDS011;39234;53.158;6.322;2023-04-25T12:55:41;5.60;;;1.10;;
53151;SDS011;39234;53.158;6.322;2023-04-25T12:58:06;5.03;;;0.85;;
53151;SDS011;39234;53.158;6.322;2023-04-25T13:00:32;8.02;;;1.30;;
53151;SDS011;39234;53.158;6.322;2023-04-25T13:02:58;11.93;;;1.75;;
53151;SDS011;39234;53.158;6.322;2023-04-25T13:05:24;6.82;;;1.30;;
53151;SDS011;39234;53.158;6.322;2023-04-25T13:07:50;11.25;;;1.75;;
53151;SDS011;39234;53.158;6.322;2023-04-25T13:10:16;7.47;;;2.28;;
53151;SDS011;39234;53.158;6.322;2023-04-25T13:12:43;9.18;;;1.70;;
53151;SDS011;39234;53.158;6.322;2023-04-25T13:15:09;12.63;;;1.88;;
53151;SDS011;39234;53.158;6.322;2023-04-25T13:17:36;11.43;;;2.13;;
53151;SDS011;39234;53.158;6.322;2023-04-25T13:20:03;10.70;;;1.92;;
53151;SDS011;39234;53.158;6.322;2023-04-25T13:22:33;11.73;;;1.60;;
53151;SDS011;39234;53.158;6.322;2023-04-25T13:25:01;14.88;;;2.28;;
53151;SDS011;39234;53.158;6.322;2023-04-25T13:27:28;7.40;;;2.03;;
53151;SDS011;39234;53.158;6.322;2023-04-25T13:29:55;10.18;;;1.42;;
53151;SDS011;39234;53.158;6.322;2023-04-25T13:32:21;7.05;;;1.30;;
53151;SDS011;39234;53.158;6.322;2023-04-25T13:34:46;8.73;;;1.30;;
53151;SDS011;39234;53.158;6.322;2023-04-25T13:37:12;9.38;;;1.65;;
53151;SDS011;39234;53.158;6.322;2023-04-25T13:39:38;11.15;;;1.60;;
53151;SDS011;39234;53.158;6.322;2023-04-25T13:42:04;8.75;;;1.70;;
53151;SDS011;39234;53.158;6.322;2023-04-25T13:44:29;16.10;;;2.55;;
53151;SDS011;39234;53.158;6.322;2023-04-25T13:46:55;10.48;;;1.95;;
53151;SDS011;39234;53.158;6.322;2023-04-25T13:49:21;9.70;;;1.80;;
53151;SDS011;39234;53.158;6.322;2023-04-25T13:51:47;10.25;;;1.88;;
53151;SDS011;39234;53.158;6.322;2023-04-25T13:54:13;62.65;;;7.50;;
53151;SDS011;39234;53.158;6.322;2023-04-25T13:56:39;21.60;;;2.80;;
53151;SDS011;39234;53.158;6.322;2023-04-25T13:59:07;32.30;;;3.47;;
53151;SDS011;39234;53.158;6.322;2023-04-25T14:01:32;10.45;;;1.98;;
53151;SDS011;39234;53.158;6.322;2023-04-25T14:04:00;16.83;;;2.03;;
53151;SDS011;39234;53.158;6.322;2023-04-25T14:06:26;12.35;;;1.60;;
53151;SDS011;39234;53.158;6.322;2023-04-25T14:08:53;10.82;;;1.88;;
53151;SDS011;39234;53.158;6.322;2023-04-25T14:11:19;9.70;;;1.65;;
53151;SDS011;39234;53.158;6.322;2023-04-25T14:13:45;6.57;;;1.35;;
53151;SDS011;39234;53.158;6.322;2023-04-25T14:16:11;9.55;;;1.50;;
53151;SDS011;39234;53.158;6.322;2023-04-25T14:18:37;8.63;;;1.70;;
53151;SDS011;39234;53.158;6.322;2023-04-25T14:21:02;13.68;;;1.65;;
53151;SDS011;39234;53.158;6.322;2023-04-25T14:23:28;9.82;;;1.42;;
53151;SDS011;39234;53.158;6.322;2023-04-25T14:25:54;10.05;;;1.70;;
53151;SDS011;39234;53.158;6.322;2023-04-25T14:28:19;9.43;;;1.98;;
53151;SDS011;39234;53.158;6.322;2023-04-25T14:30:45;14.85;;;2.15;;
53151;SDS011;39234;53.158;6.322;2023-04-25T14:33:11;8.25;;;1.42;;
53151;SDS011;39234;53.158;6.322;2023-04-25T14:35:38;10.38;;;1.52;;
53151;SDS011;39234;53.158;6.322;2023-04-25T14:38:04;5.32;;;0.98;;
53151;SDS011;39234;53.158;6.322;2023-04-25T14:40:30;11.48;;;1.25;;
53151;SDS011;39234;53.158;6.322;2023-04-25T14:42:56;10.77;;;2.25;;
53151;SDS011;39234;53.158;6.322;2023-04-25T14:45:22;8.27;;;1.50;;
53151;SDS011;39234;53.158;6.322;2023-04-25T14:47:47;8.82;;;1.33;;
53151;SDS011;39234;53.158;6.322;2023-04-25T14:50:13;9.32;;;1.80;;
53151;SDS011;39234;53.158;6.322;2023-04-25T14:52:39;9.70;;;1.33;;
53151;SDS011;39234;53.158;6.322;2023-04-25T14:55:05;5.40;;;1.30;;
53151;SDS011;39234;53.158;6.322;2023-04-25T14:57:32;11.52;;;1.50;;
53151;SDS011;39234;53.158;6.322;2023-04-25T14:59:59;11.65;;;1.85;;
53151;SDS011;39234;53.158;6.322;2023-04-25T15:02:25;7.32;;;1.40;;
53151;SDS011;39234;53.158;6.322;2023-04-25T15:04:52;7.93;;;1.42;;